Ergebnisse

Download
# Nr. Name Team Jg. Nat. Zeit Abstand
49 SCHREITER Erik Crossworx RADT / SG Callenberg 1997 GERGER DNF
48 FICKELSCHEER Erik Crossworx RADT 1992 GERGER DNF
1 1 TEXTOR Christian Team BULLS 1990 GERGER 00:10:30.35
10 77 RHAM Lucas Trailwerk Solo-Racing 1990 GERGER 00:11:09.39 +0:39.04
11 4 LINDNER Kevin ShredERZ 1991 GERGER 00:11:14.24 +0:43.89
12 10 HEINE Felix RSG Olympiapark 1990 GERGER 00:11:15.39 +0:45.04
13 9 LÖFFLER Christian 1993 GERGER 00:11:16.46 +0:46.11
14 62 VOTH Laurin Schneelaufverein Ravensburg 2000 GERGER 00:11:19.53 +0:49.18
15 5 RENZ Daniel Schwoabaracing 1996 GERGER 00:11:20.37 +0:50.02
16 88 WERRES Florian 1999 GERGER 00:11:20.61 +0:50.26
17 3 STEINSBERGER Jens 1990 GERGER 00:11:22.87 +0:52.52
18 34 HASSFELD Joel Bikepark Albstadt Racing 1998 GERGER 00:11:23.02 +0:52.67
19 21 SCHÜZ Tim Radhaus am Markt 1995 GERGER 00:11:24.65 +0:54.30
2 75 KARDINAR Petrik Thirty7even // JenBike // ILRC 1989 GERGER 00:10:49.04 +0:18.69
20 11 MÖHWALD Jonas Full party Crew 2000 GERGER 00:11:25.33 +0:54.98
21 72 RISS Marvin BPM-ProShop 1998 GERGER 00:11:27.65 +0:57.30
22 83 HEMMERLING Thore 2002 GERGER 00:11:31.02 +1:00.67
23 16 SCHLEICHER Valentin 2002 GERGER 00:11:32.84 +1:02.49
24 18 HARTMANN Niklas HIBIKE GRAVITY 2001 GERGER 00:11:36.22 +1:05.87
25 73 SONNTAG Oliver Sundayrides Racing 1992 GERGER 00:11:38.33 +1:07.98
26 19 WILLNER Nick HIBIKE Gravity Team 1999 GERGER 00:11:40.47 +1:10.12
27 25 CLAUDI Julian Rad-Club 93 Winnenden 1999 GERGER 00:11:40.52 +1:10.17
28 81 FRICKE Luca 1995 GERGER 00:11:43.05 +1:12.70
29 20 OTT Linus Team abgefahren bikes&sports 1997 GERGER 00:11:44.74 +1:14.39
3 51 DRACH Torben RAAW // LEVELNINE Gravity Team 1998 GERGER 00:10:52.71 +0:22.36
30 28 LIEF Mathias RCW Koblenz Arzheim 2002 GERGER 00:11:46.19 +1:15.84
31 13 AURES Leon RSC Neukirchen /Team Herobikes 2001 GERGER 00:11:47.56 +1:17.21
32 87 WEIHING Leon 2003 GERGER 00:11:47.92 +1:17.57
33 23 CHRIST Jan HMC-Singen 1998 GERGER 00:11:50.27 +1:19.92
34 86 VAN ROY Nicolas 1994 BELBEL 00:11:53.46 +1:23.11
35 68 MAYER Philipp RSV Germania Sulzfeld 1998 GERGER 00:11:53.95 +1:23.60
36 35 BÖHM Sven Bikecafe Messingschlager 1996 GERGER 00:11:54.58 +1:24.23
37 82 HÄNEL Matthias Bikecenter-Alb 1996 GERGER 00:11:55.92 +1:25.57
38 14 DERKUM Christian RAAW // LEVELNINE Gravity Team 1991 GERGER 00:11:56.25 +1:25.90
39 58 FELING Marius Traction Development 2001 GERGER 00:11:56.33 +1:25.98
4 7 HEIM Fabian Raaw 1992 GERGER 00:11:02.32 +0:31.97
40 61 ALBER Lennard Procraft Racing Team 2002 GERGER 00:12:01.13 +1:30.78
41 66 LINDENBORN Benjamin 1996 GERGER 00:12:02.50 +1:32.15
42 53 HERBST Wilhelm HerbststurmRacing 2003 GERGER 00:12:02.80 +1:32.45
43 6 KATER Lukas 2000 GERGER 00:12:03.23 +1:32.88
44 43 GEIL Kevin Bike-Paradise 1995 GERGER 00:12:05.32 +1:34.97
45 78 SILBERHORN Moritz TV Hegensberg 2003 GERGER 00:12:05.90 +1:35.55
46 52 SCHULER Elias Greedy Vulture 1995 GERGER 00:12:13.57 +1:43.22
47 41 RICHTER Bastian 29er-Racing 1994 GERGER 00:12:16.45 +1:46.10
48 46 SPIESSL Lukas Biller Bikes 1998 GERGER 00:12:16.90 +1:46.55
49 26 RAUTERBERG Johannes Bike-Team-Steinweiler 1995 GERGER 00:12:17.95 +1:47.60
5 70 JAUCH Jasper SANTA CRUZ bicycles 1991 GERGER 00:11:03.88 +0:33.53
50 74 LIPKA Simon Team Drecksau 2000 GERGER 00:12:19.12 +1:48.77
51 39 PRÖSL Nico Racingskillz 2003 GERGER 00:12:26.49 +1:56.14
52 45 AUTH Michael Bikeparadise GmbH 1990 GERGER 00:12:28.01 +1:57.66
53 37 VLASKOVAC Ben 2003 GERGER 00:12:31.61 +2:01.26
54 44 KLEY Felix 1994 GERGER 00:12:33.52 +2:03.17
55 54 SCHMIDT Benedikt HIBIKE Gravity Team 1996 GERGER 00:12:34.15 +2:03.80
56 33 HÄRING Simon SV- Ravensburg 2001 GERGER 00:12:40.11 +2:09.76
57 80 FISCHER Nikolai 1999 GERGER 00:12:42.57 +2:12.22
58 76 FELING Johannes Traction Development Racing 2002 GERGER 00:12:45.80 +2:15.45
59 31 FEJFAR Yannik RFC Rossbach 1995 GERGER 00:12:46.30 +2:15.95
6 15 LEONHARDT Konstantin 1996 GERGER 00:11:04.70 +0:34.35
60 29 FRITZ Alexander SC Korb Radsport 1994 GERGER 00:12:50.87 +2:20.52
61 38 DÜRR Luis Schwobaracing 2003 GERGER 00:12:53.83 +2:23.48
62 57 POMPALLA Phil Loamerz 1995 GERGER 00:12:58.07 +2:27.72
63 67 BERGMANN Finn RSC 79 Werne 2003 GERGER 00:12:58.83 +2:28.48
64 50 MÜHRER Marvin DDMC-Solling 1992 GERGER 00:13:02.58 +2:32.23
65 64 GERHARDT Julian RC Victoria Neheim 1990 GERGER 00:13:02.61 +2:32.26
66 36 BOGLER Jonas Rcw Koblenz-Arzheim 2000 GERGER 00:13:29.28 +2:58.93
67 8 SCHWENK Robert 1994 GERGER 00:13:31.07 +3:00.72
68 32 KÖNIG Vitalij DIMB Racingteam 1989 GERGER 00:13:34.82 +3:04.47
69 42 RITTMAIER Johannes 2-Cycle 2002 GERGER 00:13:36.10 +3:05.75
7 47 HALLMANNS Moritz Blue Power Marine Pro Shop 1997 GERGER 00:11:07.61 +0:37.26
70 60 SPÄH Calvin Pfalzbiker 1998 GERGER 00:14:45.73 +4:15.38
71 69 KREITLEIN Nils RSV Sturmvogel Bad Neuenahr Ahrweiler 2001 GERGER 00:15:17.25 +4:46.90
72 63 MEIER Janik Radfüchse Büren 1994 GERGER 00:15:27.74 +4:57.39
73 40 KNOCHE Jakob Home-Trail Krefeld e.V. 2003 GERGER 00:15:34.95 +5:04.60
74 55 FUNCK Falk Home Trail Krefeld e.V. 2002 GERGER 00:16:07.35 +5:37.00
8 71 REIMANN Erik ShredERZ 1997 GERGER 00:11:08.54 +0:38.19
9 17 FUCHS Peter Schneelaufverein Ravensburg 2002 GERGER 00:11:08.70 +0:38.35